Time;durP1;ratioP1;P1;durP2;ratioP2;P2;SDS_P1;SDS_P2;PMS_P1;PMS_P2;Temp;Humidity;BMP_temperature;BMP_pressure;BME280_temperature;BME280_humidity;BME280_pressure;Samples;Min_cycle;Max_cycle;Signal;HPM_P1;HPM_P2
2021/01/12 00:02:17;;;;;;;;;;;;;;;6.58;100.00;99054.28;5089262;28;19990;-75
2021/01/12 00:04:44;;;;;;;;;;;;;;;6.62;100.00;99065.38;5090367;28;20302;-75
2021/01/12 00:07:11;;;;;;;;;;;;;;;6.60;100.00;99059.44;5090421;28;20306;-75
2021/01/12 00:09:39;;;;;;;;;;;;;;;6.62;100.00;99063.38;5123301;28;19924;-75
2021/01/12 00:12:06;;;;;;;;;;;;;;;6.60;100.00;99084.41;5088640;28;20283;-75
2021/01/12 00:14:33;;;;;;;;;;;;;;;6.58;100.00;99081.22;5090388;27;20019;-75
2021/01/12 00:17:01;;;;;;;;;;;;;;;6.57;100.00;99079.66;5090501;27;20271;-75
2021/01/12 00:19:27;;;;;;;;;;;;;;;6.58;100.00;99093.13;5090087;27;19925;-75
2021/01/12 00:21:54;;;;;;;;;;;;;;;6.60;100.00;99095.53;5122949;28;19936;-75
2021/01/12 00:24:21;;;;;;;;;;;;;;;6.58;100.00;99097.88;5109750;28;20404;-75
2021/01/12 00:26:48;;;;;;;;;;;;;;;6.61;100.00;99100.69;5076553;28;20371;-75
2021/01/12 00:29:14;;;;;;;;;;;;;;;6.66;100.00;99094.72;5076614;28;19950;-75
2021/01/12 00:31:44;;;;;;;;;;;;;;;6.66;100.00;99116.94;5076422;28;19970;-75
2021/01/12 00:34:11;;;;;;;;;;;;;;;6.64;100.00;99124.06;5076357;28;19924;-75
2021/01/12 00:36:44;;;;;;;;;;;;;;;6.68;100.00;99111.00;5075370;28;19928;-75
2021/01/12 00:39:11;;;;;;;;;;;;;;;6.68;100.00;99133.22;5076424;28;20394;-75
2021/01/12 00:41:38;;;;;;;;;;;;;;;6.63;100.00;99139.16;5076667;28;19925;-75
2021/01/12 00:44:05;;;;;;;;;;;;;;;6.63;100.00;99155.81;5075241;28;19990;-75
2021/01/12 00:46:32;;;;;;;;;;;;;;;6.70;100.00;99153.03;5076405;28;19963;-75
2021/01/12 00:49:02;;;;;;;;;;;;;;;6.74;100.00;99140.72;5076048;28;20363;-75
2021/01/12 00:51:32;;;;;;;;;;;;;;;6.71;100.00;99169.28;5076189;28;19932;-75
2021/01/12 00:53:58;;;;;;;;;;;;;;;6.76;100.00;99182.78;5108877;28;20261;-75
2021/01/12 00:56:34;;;;;;;;;;;;;;;6.67;100.00;99184.34;5075149;28;20343;-75
2021/01/12 00:59:01;;;;;;;;;;;;;;;6.65;100.00;99203.41;5076020;28;20483;-75
2021/01/12 01:01:28;;;;;;;;;;;;;;;6.64;100.00;99185.97;5108677;28;19931;-75
2021/01/12 01:03:55;;;;;;;;;;;;;;;6.70;100.00;99189.13;5074675;28;19924;-75
2021/01/12 01:06:22;;;;;;;;;;;;;;;6.72;100.00;99220.88;5075990;28;20456;-75
2021/01/12 01:08:48;;;;;;;;;;;;;;;6.71;100.00;99215.72;5076036;28;20363;-75
2021/01/12 01:11:15;;;;;;;;;;;;;;;6.71;100.00;99243.50;5108130;28;19928;-75
2021/01/12 01:13:41;;;;;;;;;;;;;;;6.68;100.00;99247.06;5074546;28;20348;-75
2021/01/12 01:16:08;;;;;;;;;;;;;;;6.66;100.00;99257.75;5075550;28;19947;-75
2021/01/12 01:18:35;;;;;;;;;;;;;;;6.62;100.00;99268.84;5108352;28;19935;-75
2021/01/12 01:21:01;;;;;;;;;;;;;;;6.58;100.00;99281.94;5075604;28;19932;-75
2021/01/12 01:23:27;;;;;;;;;;;;;;;6.54;100.00;99280.31;5074540;28;19924;-75
2021/01/12 01:25:54;;;;;;;;;;;;;;;6.52;100.00;99299.34;5075678;28;19925;-75
2021/01/12 01:28:21;;;;;;;;;;;;;;;6.50;100.00;99307.25;5091215;28;19924;-75
2021/01/12 01:30:48;;;;;;;;;;;;;;;6.49;100.00;99316.78;5075245;28;20478;-75
2021/01/12 01:33:15;;;;;;;;;;;;;;;6.55;100.00;99309.66;5075418;28;20326;-75
2021/01/12 01:35:43;;;;;;;;;;;;;;;6.54;100.00;99316.41;5074359;28;19924;-75
2021/01/12 01:38:09;;;;;;;;;;;;;;;6.56;100.00;99325.13;5074279;28;19924;-75
2021/01/12 01:40:35;;;;;;;;;;;;;;;6.54;100.00;99325.50;5075397;28;19928;-75
2021/01/12 01:43:02;;;;;;;;;;;;;;;6.49;100.00;99327.88;5075329;28;19924;-75
2021/01/12 01:45:29;;;;;;;;;;;;;;;6.48;100.00;99340.97;5073773;28;19967;-75
2021/01/12 01:48:01;;;;;;;;;;;;;;;6.49;100.00;99328.69;5075202;28;20382;-75
2021/01/12 01:50:27;;;;;;;;;;;;;;;6.44;100.00;99345.72;5074016;28;19934;-75
2021/01/12 01:52:54;;;;;;;;;;;;;;;6.43;100.00;99357.19;5073755;28;19924;-75
2021/01/12 01:55:21;;;;;;;;;;;;;;;6.43;100.00;99357.19;5075195;28;19932;-75
2021/01/12 01:57:48;;;;;;;;;;;;;;;6.45;100.00;99357.63;5074913;28;19930;-75
2021/01/12 02:00:17;;;;;;;;;;;;;;;6.47;100.00;99366.34;5074606;28;19928;-75
2021/01/12 02:02:46;;;;;;;;;;;;;;;6.43;100.00;99379.41;5075133;28;19924;-75
2021/01/12 02:05:13;;;;;;;;;;;;;;;6.41;100.00;99374.25;5074846;28;19978;-75
2021/01/12 02:07:41;;;;;;;;;;;;;;;6.39;100.00;99378.59;5074772;28;19925;-75
2021/01/12 02:10:10;;;;;;;;;;;;;;;6.41;100.00;99392.88;5074773;28;19931;-75
2021/01/12 02:12:39;;;;;;;;;;;;;;;6.39;100.00;99384.94;5072895;28;19928;-75
2021/01/12 02:15:07;;;;;;;;;;;;;;;6.38;100.00;99399.19;5074331;28;19925;-75
2021/01/12 02:17:34;;;;;;;;;;;;;;;6.37;100.00;99403.97;5074577;28;19932;-75
2021/01/12 02:20:01;;;;;;;;;;;;;;;6.39;100.00;99417.47;5107148;28;19932;-75
2021/01/12 02:22:28;;;;;;;;;;;;;;;6.43;100.00;99419.06;5074373;28;20278;-75
2021/01/12 02:24:55;;;;;;;;;;;;;;;6.42;100.00;99433.34;5107095;28;20013;-75
2021/01/12 02:27:24;;;;;;;;;;;;;;;6.46;100.00;99440.50;5074303;28;20002;-75
2021/01/12 02:29:51;;;;;;;;;;;;;;;6.40;100.00;99438.47;5074106;28;19932;-75
2021/01/12 02:32:19;;;;;;;;;;;;;;;6.42;100.00;99450.00;5074221;28;19924;-75
2021/01/12 02:34:47;;;;;;;;;;;;;;;6.41;100.00;99459.47;5074263;28;19924;-75
2021/01/12 02:37:14;;;;;;;;;;;;;;;6.40;100.00;99457.91;5074137;28;19928;-75
2021/01/12 02:39:42;;;;;;;;;;;;;;;6.39;100.00;99470.97;5074199;28;19932;-75
2021/01/12 02:42:14;;;;;;;;;;;;;;;6.44;100.00;99480.91;5074008;28;19932;-75
2021/01/12 02:44:41;;;;;;;;;;;;;;;6.40;100.00;99493.97;5073923;28;19925;-75
2021/01/12 02:47:08;;;;;;;;;;;;;;;6.38;100.00;99480.50;5073767;28;19924;-75
2021/01/12 02:49:34;;;;;;;;;;;;;;;6.38;100.00;99494.38;5073936;28;19931;-75
2021/01/12 02:52:01;;;;;;;;;;;;;;;6.35;100.00;99478.50;5055989;28;19924;-75
2021/01/12 02:54:27;;;;;;;;;;;;;;;6.40;100.00;99485.66;5073987;28;19924;-75
2021/01/12 02:56:54;;;;;;;;;;;;;;;6.36;100.00;99488.41;5073878;28;20023;-75
2021/01/12 02:59:21;;;;;;;;;;;;;;;6.34;100.00;99476.09;5073630;28;19932;-75
2021/01/12 03:01:47;;;;;;;;;;;;;;;6.34;100.00;99471.34;5073925;28;19931;-75
2021/01/12 03:04:14;;;;;;;;;;;;;;;6.33;100.00;99491.94;5072656;28;19925;-75
2021/01/12 03:06:40;;;;;;;;;;;;;;;6.32;100.00;99475.69;5072639;28;19974;-75
2021/01/12 03:09:07;;;;;;;;;;;;;;;6.32;100.00;99498.69;5072550;28;19924;-75
2021/01/12 03:11:33;;;;;;;;;;;;;;;6.31;100.00;99510.97;5072146;28;19964;-75
2021/01/12 03:14:00;;;;;;;;;;;;;;;6.32;100.00;99515.34;5055473;28;20299;-75
2021/01/12 03:16:26;;;;;;;;;;;;;;;6.29;100.00;99509.75;5073832;28;19928;-75
2021/01/12 03:18:52;;;;;;;;;;;;;;;6.30;100.00;99503.81;5072460;28;19930;-75
2021/01/12 03:21:19;;;;;;;;;;;;;;;6.32;100.00;99522.84;5073629;28;19978;-75
2021/01/12 03:23:45;;;;;;;;;;;;;;;6.33;100.00;99543.91;5105983;28;19929;-75
2021/01/12 03:26:12;;;;;;;;;;;;;;;6.34;100.00;99553.81;5073656;28;19929;-75
2021/01/12 03:28:38;;;;;;;;;;;;;;;6.37;100.00;99569.69;5088959;28;19932;-75
2021/01/12 03:31:05;;;;;;;;;;;;;;;6.40;100.00;99583.63;5073469;28;19971;-75
2021/01/12 03:33:32;;;;;;;;;;;;;;;6.37;100.00;99591.91;5073497;28;19924;-75
2021/01/12 03:35:58;;;;;;;;;;;;;;;6.37;100.00;99608.56;5073621;28;19932;-75
2021/01/12 03:38:25;;;;;;;;;;;;;;;6.33;100.00;99610.50;5073500;28;19935;-75
2021/01/12 03:40:52;;;;;;;;;;;;;;;6.33;100.00;99633.50;5072150;28;19928;-75
2021/01/12 03:43:19;;;;;;;;;;;;;;;6.32;100.00;99644.97;5105703;28;19964;-75
2021/01/12 03:45:46;;;;;;;;;;;;;;;6.27;100.00;99637.00;5105933;28;19939;-75
2021/01/12 03:48:13;;;;;;;;;;;;;;;6.23;100.00;99658.38;5073462;28;19924;-76
2021/01/12 03:50:40;;;;;;;;;;;;;;;6.23;100.00;99666.69;5073253;28;19964;-74
2021/01/12 03:53:06;;;;;;;;;;;;;;;6.26;100.00;99679.81;5072067;28;19925;-74
2021/01/12 03:55:33;;;;;;;;;;;;;;;6.24;100.00;99682.19;5073260;28;19932;-75
2021/01/12 03:58:00;;;;;;;;;;;;;;;6.22;100.00;99685.34;5073948;28;19955;-76
2021/01/12 04:00:28;;;;;;;;;;;;;;;6.24;100.00;99688.50;5077089;28;19977;-76
2021/01/12 04:02:54;;;;;;;;;;;;;;;6.23;100.00;99689.69;5076888;28;19929;-74
2021/01/12 04:05:21;;;;;;;;;;;;;;;6.25;100.00;99689.31;5075735;28;19932;-74
2021/01/12 04:07:48;;;;;;;;;;;;;;;6.27;100.00;99706.41;5077116;28;19932;-76
2021/01/12 04:10:15;;;;;;;;;;;;;;;6.30;100.00;99711.97;5076744;28;19924;-76
2021/01/12 04:12:42;;;;;;;;;;;;;;;6.31;100.00;99718.31;5075093;28;19990;-76
2021/01/12 04:15:08;;;;;;;;;;;;;;;6.35;100.00;99719.16;5076780;28;19924;-76
2021/01/12 04:17:35;;;;;;;;;;;;;;;6.36;100.00;99729.88;5076320;28;19928;-76
2021/01/12 04:20:03;;;;;;;;;;;;;;;6.39;100.00;99733.88;5076628;28;19930;-77
2021/01/12 04:22:29;;;;;;;;;;;;;;;6.37;100.00;99733.47;5076836;28;19931;-75
2021/01/12 04:24:56;;;;;;;;;;;;;;;6.35;100.00;99738.59;5058382;28;20283;-76
2021/01/12 04:27:22;;;;;;;;;;;;;;;6.36;100.00;99740.19;5076563;28;19925;-76
2021/01/12 04:29:48;;;;;;;;;;;;;;;6.38;100.00;99754.47;5076570;28;19970;-76
2021/01/12 04:32:15;;;;;;;;;;;;;;;6.37;100.00;99748.16;5076253;28;19936;-77
2021/01/12 04:34:42;;;;;;;;;;;;;;;6.33;100.00;99752.06;5075159;28;19925;-76
2021/01/12 04:37:09;;;;;;;;;;;;;;;6.22;100.00;99751.94;5076402;28;19959;-76
2021/01/12 04:39:35;;;;;;;;;;;;;;;5.72;100.00;99759.94;5076191;28;19932;-76
2021/01/12 04:42:03;;;;;;;;;;;;;;;5.05;100.00;99756.94;5076151;28;19931;-76
2021/01/12 04:44:30;;;;;;;;;;;;;;;4.92;100.00;99758.25;5076304;28;19948;-76
2021/01/12 04:46:56;;;;;;;;;;;;;;;4.31;100.00;99752.00;5075000;28;20034;-76
2021/01/12 04:49:23;;;;;;;;;;;;;;;4.05;100.00;99749.09;5076131;28;19924;-76
2021/01/12 04:51:49;;;;;;;;;;;;;;;3.93;100.00;99751.19;5108555;28;19941;-76
2021/01/12 04:54:15;;;;;;;;;;;;;;;3.84;100.00;99748.66;5091472;28;19924;-75
2021/01/12 04:56:42;;;;;;;;;;;;;;;3.67;100.00;99746.28;5091462;28;19931;-76
2021/01/12 04:59:08;;;;;;;;;;;;;;;3.67;100.00;99749.06;5076013;28;19925;-75
2021/01/12 05:01:35;;;;;;;;;;;;;;;3.54;100.00;99756.66;5075886;28;20046;-75
2021/01/12 05:04:05;;;;;;;;;;;;;;;3.48;100.00;99749.81;5074713;28;19959;-76
2021/01/12 05:06:31;;;;;;;;;;;;;;;3.49;100.00;99751.44;5108252;28;19925;-75
2021/01/12 05:08:58;;;;;;;;;;;;;;;3.45;100.00;99741.47;5074142;28;20445;-76
2021/01/12 05:11:26;;;;;;;;;;;;;;;3.38;100.00;99719.19;5075518;28;20288;-75
2021/01/12 05:14:00;;;;;;;;;;;;;;;3.52;100.00;99711.22;5075742;28;19924;-75
2021/01/12 05:16:26;;;;;;;;;;;;;;;3.47;100.00;99697.69;5075702;28;20279;-75
2021/01/12 05:18:55;;;;;;;;;;;;;;;3.52;100.00;99692.69;5074444;28;20023;-75
2021/01/12 05:21:25;;;;;;;;;;;;;;;3.53;100.00;99693.47;5075531;28;19931;-76
2021/01/12 05:24:00;;;;;;;;;;;;;;;3.41;100.00;99680.59;5075360;28;19928;-75
2021/01/12 05:26:31;;;;;;;;;;;;;;;3.41;100.00;99671.50;5075511;28;19924;-76
2021/01/12 05:28:58;;;;;;;;;;;;;;;3.47;100.00;99668.09;5075411;28;20310;-76
2021/01/12 05:31:26;;;;;;;;;;;;;;;3.31;100.00;99661.03;5075313;28;19929;-76
2021/01/12 05:33:52;;;;;;;;;;;;;;;3.46;100.00;99662.94;5075362;28;20062;-76
2021/01/12 05:36:19;;;;;;;;;;;;;;;3.55;100.00;99660.75;5075323;28;19925;-76
2021/01/12 05:38:49;;;;;;;;;;;;;;;3.56;100.00;99671.44;5074924;28;20328;-76
2021/01/12 05:41:16;;;;;;;;;;;;;;;3.50;100.00;99677.63;5107696;28;20007;-76
2021/01/12 05:43:46;;;;;;;;;;;;;;;3.51;100.00;99684.75;5073903;28;19928;-76
2021/01/12 05:46:14;;;;;;;;;;;;;;;3.61;100.00;99690.53;5075079;28;20011;-76
2021/01/12 05:48:42;;;;;;;;;;;;;;;3.69;100.00;99702.53;5075038;28;19924;-76
2021/01/12 05:51:09;;;;;;;;;;;;;;;3.65;100.00;99707.97;5073552;28;19925;-76
2021/01/12 05:53:40;;;;;;;;;;;;;;;3.59;100.00;99697.56;5074570;28;19932;-76
2021/01/12 05:56:07;;;;;;;;;;;;;;;3.53;100.00;99704.53;5075074;28;19924;-76
2021/01/12 05:58:40;;;;;;;;;;;;;;;3.52;100.00;99700.16;5073780;28;19924;-76
2021/01/12 06:01:07;;;;;;;;;;;;;;;3.27;100.00;99696.06;5074835;28;19931;-76
2021/01/12 06:03:36;;;;;;;;;;;;;;;3.26;100.00;99697.22;5074836;28;20118;-76
2021/01/12 06:06:02;;;;;;;;;;;;;;;3.18;100.00;99698.22;5074627;28;19925;-75
2021/01/12 06:08:29;;;;;;;;;;;;;;;3.09;100.00;99705.91;5074673;28;20309;-76
2021/01/12 06:11:06;;;;;;;;;;;;;;;3.08;100.00;99698.75;5073442;28;19961;-76
2021/01/12 06:13:34;;;;;;;;;;;;;;;3.15;100.00;99707.22;5074211;28;19925;-76
2021/01/12 06:16:14;;;;;;;;;;;;;;;3.25;100.00;99712.19;5074579;28;19962;-75
2021/01/12 06:18:51;;;;;;;;;;;;;;;3.09;100.00;99694.84;5074486;28;20071;-76
2021/01/12 06:21:17;;;;;;;;;;;;;;;3.21;100.00;99708.56;5106238;28;19924;-76
2021/01/12 06:23:56;;;;;;;;;;;;;;;2.99;100.00;99700.91;5074493;28;19924;-76
2021/01/12 06:26:25;;;;;;;;;;;;;;;3.13;100.00;99706.78;5074536;28;19925;-76
2021/01/12 06:28:52;;;;;;;;;;;;;;;3.01;100.00;99712.41;5074386;28;19928;-76
2021/01/12 06:31:18;;;;;;;;;;;;;;;2.98;100.00;99704.84;5074221;28;20390;-76
2021/01/12 06:33:55;;;;;;;;;;;;;;;3.01;100.00;99693.09;5073042;28;20031;-76
2021/01/12 06:36:23;;;;;;;;;;;;;;;2.89;100.00;99695.94;5073974;28;19992;-76
2021/01/12 06:38:50;;;;;;;;;;;;;;;2.95;100.00;99711.88;5074353;28;20268;-76
2021/01/12 06:41:20;;;;;;;;;;;;;;;2.96;100.00;99720.94;5073916;28;19924;-76
2021/01/12 06:43:50;;;;;;;;;;;;;;;2.83;100.00;99725.75;5072425;28;19938;-76
2021/01/12 06:46:17;;;;;;;;;;;;;;;2.84;100.00;99732.09;5073663;28;19924;-76
2021/01/12 06:48:44;;;;;;;;;;;;;;;2.83;100.00;99744.28;5073739;28;19924;-76
2021/01/12 06:51:12;;;;;;;;;;;;;;;2.73;100.00;99744.81;5073479;28;19925;-76
2021/01/12 06:53:43;;;;;;;;;;;;;;;2.71;100.00;99749.91;5073507;28;20434;-75
2021/01/12 06:56:10;;;;;;;;;;;;;;;2.72;100.00;99751.50;5073454;28;19924;-75
2021/01/12 06:58:36;;;;;;;;;;;;;;;2.68;100.00;99762.44;5073365;28;19950;-74
2021/01/12 07:01:03;;;;;;;;;;;;;;;2.62;100.00;99763.06;5105773;28;19924;-75
2021/01/12 07:03:31;;;;;;;;;;;;;;;2.65;100.00;99778.91;5072143;28;19947;-75
2021/01/12 07:06:01;;;;;;;;;;;;;;;2.51;100.00;99786.81;5073247;28;20044;-75
2021/01/12 07:08:29;;;;;;;;;;;;;;;2.54;100.00;99799.88;5074256;28;20431;-75
2021/01/12 07:11:03;;;;;;;;;;;;;;;2.53;100.00;99809.31;5073731;28;19925;-75
2021/01/12 07:13:39;;;;;;;;;;;;;;;2.52;100.00;99814.03;5073732;28;20023;-75
2021/01/12 07:16:13;;;;;;;;;;;;;;;2.54;100.00;99827.47;5074004;28;19951;-75
2021/01/12 07:18:40;;;;;;;;;;;;;;;2.51;100.00;99844.72;5073700;28;19924;-75
2021/01/12 07:21:32;;;;;;;;;;;;;;;2.38;100.00;99846.72;5072678;28;19932;-75
2021/01/12 07:24:02;;;;;;;;;;;;;;;2.32;100.00;99874.94;5073720;28;19932;-75
2021/01/12 07:26:33;;;;;;;;;;;;;;;2.37;100.00;99900.28;5073703;28;19959;-75
2021/01/12 07:29:03;;;;;;;;;;;;;;;2.40;100.00;99931.88;5073828;28;19946;-75
2021/01/12 07:31:30;;;;;;;;;;;;;;;2.39;100.00;99946.84;5073468;28;20278;-75
2021/01/12 07:33:56;;;;;;;;;;;;;;;2.37;100.00;99965.69;5075742;28;19924;-75
2021/01/12 07:36:23;;;;;;;;;;;;;;;2.34;100.00;99989.25;5076623;28;19925;-75
2021/01/12 07:38:50;;;;;;;;;;;;;;;2.37;100.00;100012.56;5077557;28;19929;-75
2021/01/12 07:41:17;;;;;;;;;;;;;;;2.26;100.00;100014.22;5077701;28;20303;-75
2021/01/12 07:43:44;;;;;;;;;;;;;;;2.25;100.00;100034.66;5043118;28;19925;-75
2021/01/12 07:46:10;;;;;;;;;;;;;;;2.23;100.00;100053.50;5109738;28;19925;-75
2021/01/12 07:48:37;;;;;;;;;;;;;;;2.22;100.00;100072.00;5092655;28;20341;-75
2021/01/12 07:55:10;;;;;;;;;;;;;;;2.45;100.00;100105.44;5077203;28;20325;-75
2021/01/12 07:57:36;;;;;;;;;;;;;;;2.58;100.00;100126.34;5109805;28;19925;-75
2021/01/12 08:00:04;;;;;;;;;;;;;;;2.63;100.00;100151.78;5076043;28;19930;-75
2021/01/12 08:02:42;;;;;;;;;;;;;;;2.65;100.00;100156.94;5076807;28;19970;-75
2021/01/12 08:05:10;;;;;;;;;;;;;;;2.68;100.00;100164.53;5109741;28;20291;-75
2021/01/12 08:07:36;;;;;;;;;;;;;;;2.74;100.00;100152.13;5077077;28;19928;-75
2021/01/12 08:10:04;;;;;;;;;;;;;;;2.70;100.00;100154.75;5076840;28;19932;-75
2021/01/12 08:12:31;;;;;;;;;;;;;;;2.70;100.00;100162.22;5074532;28;19955;-75
2021/01/12 08:15:07;;;;;;;;;;;;;;;2.73;100.00;100153.25;5076081;28;19936;-75
2021/01/12 08:17:34;;;;;;;;;;;;;;;2.69;100.00;100155.09;5075617;28;19925;-75
2021/01/12 08:20:03;;;;;;;;;;;;;;;2.71;100.00;100147.28;5074546;28;20404;-75
2021/01/12 08:22:29;;;;;;;;;;;;;;;2.64;100.00;100136.00;5108325;28;19931;-75
2021/01/12 08:25:03;;;;;;;;;;;;;;;2.58;100.00;100121.66;5074672;28;19929;-75
2021/01/12 08:27:31;;;;;;;;;;;;;;;2.49;100.00;100100.84;5074593;28;20364;-75
2021/01/12 08:30:07;;;;;;;;;;;;;;;2.47;100.00;100081.09;5075697;28;20327;-75
2021/01/12 08:32:35;;;;;;;;;;;;;;;2.44;100.00;100048.66;5107739;28;20019;-75
2021/01/12 08:35:04;;;;;;;;;;;;;;;2.43;100.00;100036.00;5074449;28;20442;-75
2021/01/12 08:37:34;;;;;;;;;;;;;;;2.39;100.00;100005.56;5075747;28;20303;-76
2021/01/12 08:40:01;;;;;;;;;;;;;;;2.33;100.00;99957.31;5075721;28;19931;-75
2021/01/12 08:42:28;;;;;;;;;;;;;;;2.40;100.00;99926.38;5075437;28;19929;-74
2021/01/12 08:44:55;;;;;;;;;;;;;;;2.27;100.00;99905.50;5075067;28;20402;-75
2021/01/12 08:47:25;;;;;;;;;;;;;;;2.25;100.00;99891.25;5075250;28;20371;-75
2021/01/12 08:50:02;;;;;;;;;;;;;;;1.99;100.00;99843.97;5075626;28;20345;-75
2021/01/12 08:52:29;;;;;;;;;;;;;;;2.01;100.00;99809.41;5075780;28;19924;-75
2021/01/12 08:54:56;;;;;;;;;;;;;;;2.00;100.00;99790.47;5075256;28;19928;-75
2021/01/12 08:57:22;;;;;;;;;;;;;;;1.99;100.00;99758.53;5075331;28;19931;-75
2021/01/12 08:59:49;;;;;;;;;;;;;;;1.80;100.00;99720.59;5075379;28;20011;-75
2021/01/12 09:02:19;;;;;;;;;;;;;;;1.79;100.00;99703.25;5065178;28;19928;-75
2021/01/12 09:04:46;;;;;;;;;;;;;;;1.67;100.00;99678.50;5068195;28;19958;-75
2021/01/12 09:07:38;;;;;;;;;;;;;;;1.79;100.00;99681.22;5068723;28;20322;-76
2021/01/12 09:10:07;;;;;;;;;;;;;;;1.72;100.00;99653.47;5067741;28;20394;-77
2021/01/12 09:12:34;;;;;;;;;;;;;;;1.65;100.00;99624.94;5050566;28;20299;-77
2021/01/12 09:15:04;;;;;;;;;;;;;;;1.76;100.00;99620.50;5069644;28;19990;-76
2021/01/12 09:17:30;;;;;;;;;;;;;;;1.76;100.00;99593.75;5035178;28;19954;-75
2021/01/12 09:19:57;;;;;;;;;;;;;;;1.67;100.00;99579.34;5067014;28;19925;-76
2021/01/12 09:22:28;;;;;;;;;;;;;;;1.72;100.00;99570.00;5071549;28;20397;-74
2021/01/12 09:24:55;;;;;;;;;;;;;;;1.74;100.00;99565.75;5072459;28;19924;-75
2021/01/12 09:27:23;;;;;;;;;;;;;;;1.61;100.00;99560.66;5073231;28;19931;-75
2021/01/12 09:29:50;;;;;;;;;;;;;;;1.50;100.00;99546.59;5073512;28;19924;-75
2021/01/12 09:32:26;;;;;;;;;;;;;;;1.43;100.00;99540.09;5073752;28;19924;-75
2021/01/12 09:34:53;;;;;;;;;;;;;;;1.30;100.00;99536.59;5074033;28;19925;-75
2021/01/12 09:37:20;;;;;;;;;;;;;;;1.30;100.00;99539.34;5074257;28;19931;-75
2021/01/12 09:39:56;;;;;;;;;;;;;;;1.23;100.00;99544.66;5074038;28;19932;-76
2021/01/12 09:42:26;;;;;;;;;;;;;;;1.41;100.00;99553.41;5074957;28;19977;-75
2021/01/12 09:45:01;;;;;;;;;;;;;;;1.68;100.00;99560.88;5057665;28;19925;-76
2021/01/12 09:47:34;;;;;;;;;;;;;;;1.83;100.00;99560.09;5076932;28;19924;-75
2021/01/12 09:50:01;;;;;;;;;;;;;;;1.92;100.00;99565.41;5073726;28;20394;-75
2021/01/12 09:52:31;;;;;;;;;;;;;;;1.61;100.00;99544.94;5073782;28;19978;-75
2021/01/12 09:54:57;;;;;;;;;;;;;;;1.51;100.00;99531.69;5074667;28;19931;-76
2021/01/12 09:57:24;;;;;;;;;;;;;;;1.58;100.00;99531.06;5074139;28;19931;-75
2021/01/12 09:59:50;;;;;;;;;;;;;;;1.49;100.00;99527.66;5107124;28;19924;-75
2021/01/12 10:02:17;;;;;;;;;;;;;;;1.36;100.00;99526.16;5056861;28;19925;-77
2021/01/12 10:04:43;;;;;;;;;;;;;;;1.30;100.00;99514.56;5074678;28;19971;-76
2021/01/12 10:07:10;;;;;;;;;;;;;;;1.31;100.00;99524.44;5074630;28;19925;-76
2021/01/12 10:09:37;;;;;;;;;;;;;;;1.45;100.00;99533.06;5074502;28;19925;-76
2021/01/12 10:12:04;;;;;;;;;;;;;;;1.58;100.00;99542.88;5073872;28;20364;-76
2021/01/12 10:14:31;;;;;;;;;;;;;;;1.79;100.00;99559.97;5072448;28;19924;-76
2021/01/12 10:16:58;;;;;;;;;;;;;;;2.01;100.00;99568.81;5073353;28;19986;-76
2021/01/12 10:19:25;;;;;;;;;;;;;;;2.13;100.00;99574.22;5074473;28;19925;-76
2021/01/12 10:21:51;;;;;;;;;;;;;;;2.45;100.00;99584.09;5074286;28;20326;-76
2021/01/12 10:24:18;;;;;;;;;;;;;;;2.71;100.00;99589.84;5074368;28;20371;-76
2021/01/12 10:26:46;;;;;;;;;;;;;;;2.84;100.00;99585.81;5074152;28;19924;-76
2021/01/12 10:29:12;;;;;;;;;;;;;;;2.91;100.00;99566.63;5073979;28;19924;-76
2021/01/12 10:31:43;;;;;;;;;;;;;;;2.97;100.00;99565.22;5073007;28;19932;-76
2021/01/12 10:34:10;;;;;;;;;;;;;;;3.11;100.00;99557.22;5072932;28;19928;-76
2021/01/12 10:36:37;;;;;;;;;;;;;;;3.09;100.00;99548.53;5089777;28;19924;-75
2021/01/12 10:39:05;;;;;;;;;;;;;;;3.20;100.00;99544.00;5072837;28;19925;-74
2021/01/12 10:41:39;;;;;;;;;;;;;;;3.16;100.00;99545.91;5074052;28;19924;-74
2021/01/12 10:44:06;;;;;;;;;;;;;;;3.32;100.00;99532.81;5073052;28;19928;-75
2021/01/12 10:46:33;;;;;;;;;;;;;;;3.29;100.00;99522.47;5073940;28;19931;-74
2021/01/12 10:49:00;;;;;;;;;;;;;;;3.41;100.00;99503.00;5073949;28;19960;-75
2021/01/12 10:51:26;;;;;;;;;;;;;;;3.48;100.00;99483.81;5073832;28;19929;-75
2021/01/12 10:53:52;;;;;;;;;;;;;;;3.43;100.00;99450.94;5073699;28;19929;-74
2021/01/12 10:56:19;;;;;;;;;;;;;;;3.46;100.00;99389.44;5073632;28;20275;-74
2021/01/12 10:58:46;;;;;;;;;;;;;;;3.56;100.00;99289.34;5072559;28;19956;-74
2021/01/12 11:01:14;;;;;;;;;;;;;;;3.60;100.00;99201.78;5073624;28;19924;-75
2021/01/12 11:03:41;;;;;;;;;;;;;;;3.66;100.00;99190.00;5086789;28;19924;-76
2021/01/12 11:06:07;;;;;;;;;;;;;;;3.66;100.00;99167.13;5072164;28;20005;-76
2021/01/12 11:08:37;;;;;;;;;;;;;;;3.63;100.00;99129.19;5073543;28;19924;-76
2021/01/12 11:11:04;;;;;;;;;;;;;;;3.76;100.00;99102.13;5073116;28;20019;-76
2021/01/12 11:13:30;;;;;;;;;;;;;;;3.76;100.00;99083.53;5073240;28;19925;-76
2021/01/12 11:15:57;;;;;;;;;;;;;;;3.70;100.00;99041.66;5073542;28;19932;-76
2021/01/12 11:18:25;;;;;;;;;;;;;;;3.65;100.00;99011.59;5072439;28;19931;-76
2021/01/12 11:20:52;;;;;;;;;;;;;;;3.64;100.00;98843.44;5072053;28;19928;-77
2021/01/12 11:23:19;;;;;;;;;;;;;;;3.58;100.00;98844.94;5073537;28;19932;-77
2021/01/12 11:25:46;;;;;;;;;;;;;;;3.67;100.00;98849.00;5073243;28;19932;-77
2021/01/12 11:28:12;;;;;;;;;;;;;;;3.72;100.00;98853.38;5072284;28;19931;-77
2021/01/12 11:30:39;;;;;;;;;;;;;;;3.57;100.00;98848.91;5073341;28;19924;-77
2021/01/12 11:33:10;;;;;;;;;;;;;;;3.62;100.00;98856.81;5071959;28;19932;-77
2021/01/12 11:35:36;;;;;;;;;;;;;;;3.57;100.00;98852.44;5073430;28;20394;-77
2021/01/12 11:38:03;;;;;;;;;;;;;;;3.59;100.00;98857.59;5072179;28;19924;-74
2021/01/12 11:40:30;;;;;;;;;;;;;;;3.54;100.00;98855.97;5073149;28;19959;-75
2021/01/12 11:42:58;;;;;;;;;;;;;;;3.57;100.00;98860.72;5088977;28;19925;-77
2021/01/12 11:45:24;;;;;;;;;;;;;;;3.64;100.00;98860.00;5073351;28;19925;-76
2021/01/12 11:47:51;;;;;;;;;;;;;;;3.63;100.00;98864.72;5072050;28;19924;-76
2021/01/12 11:50:18;;;;;;;;;;;;;;;3.57;100.00;98860.72;5073180;28;19931;-76
2021/01/12 11:52:44;;;;;;;;;;;;;;;3.54;100.00;98860.72;5071922;28;19925;-76
2021/01/12 11:55:11;;;;;;;;;;;;;;;3.48;100.00;98849.22;5073142;28;19924;-77
2021/01/12 11:57:37;;;;;;;;;;;;;;;3.59;100.00;98857.59;5073076;28;19997;-76
2021/01/12 12:00:05;;;;;;;;;;;;;;;3.52;100.00;98858.34;5071946;28;19931;-76
2021/01/12 12:02:32;;;;;;;;;;;;;;;3.50;100.00;98854.34;5073170;28;20280;-77
2021/01/12 12:05:00;;;;;;;;;;;;;;;3.56;100.00;98856.38;5093893;28;19975;-77
2021/01/12 12:07:27;;;;;;;;;;;;;;;3.61;100.00;98860.75;5052809;28;19925;-75
2021/01/12 12:09:55;;;;;;;;;;;;;;;3.63;100.00;98863.94;5058455;28;20019;-76
2021/01/12 12:12:22;;;;;;;;;;;;;;;3.62;100.00;98856.81;5072927;28;19970;-77
2021/01/12 12:14:49;;;;;;;;;;;;;;;3.60;100.00;98859.19;5073174;28;19925;-76
2021/01/12 12:17:15;;;;;;;;;;;;;;;3.70;100.00;98862.03;5073247;28;20019;-76
2021/01/12 12:19:42;;;;;;;;;;;;;;;3.73;100.00;98863.22;5074962;28;20295;-74
2021/01/12 12:22:08;;;;;;;;;;;;;;;3.68;100.00;98867.13;5076223;28;19924;-75
2021/01/12 12:24:38;;;;;;;;;;;;;;;3.58;100.00;98873.38;5076500;28;19925;-74
2021/01/12 12:27:05;;;;;;;;;;;;;;;3.56;100.00;98877.69;5076672;28;19950;-74
2021/01/12 12:29:32;;;;;;;;;;;;;;;3.50;100.00;98881.97;5076681;28;19925;-74
2021/01/12 12:32:03;;;;;;;;;;;;;;;3.52;100.00;98882.41;5108058;28;20019;-74
2021/01/12 12:34:29;;;;;;;;;;;;;;;3.50;100.00;98879.22;5075333;28;19931;-75
2021/01/12 12:36:56;;;;;;;;;;;;;;;3.52;100.00;98874.91;5076296;28;19935;-75
2021/01/12 12:39:23;;;;;;;;;;;;;;;3.66;100.00;98879.75;5075115;28;19930;-73
2021/01/12 12:41:50;;;;;;;;;;;;;;;3.67;100.00;98886.88;5076536;28;19978;-76
2021/01/12 12:44:16;;;;;;;;;;;;;;;3.71;100.00;98882.97;5075135;28;19935;-75
2021/01/12 12:46:45;;;;;;;;;;;;;;;3.77;100.00;98885.38;5058518;28;20287;-72
2021/01/12 12:49:11;;;;;;;;;;;;;;;3.69;100.00;98898.34;5076359;28;19925;-73
2021/01/12 12:51:38;;;;;;;;;;;;;;;3.74;100.00;98898.78;5076452;28;19925;-73
2021/01/12 12:54:06;;;;;;;;;;;;;;;3.81;100.00;98898.03;5074821;28;19963;-73